createdAt,value
2022-09-15T00:01:55.538Z,77.32
2022-09-15T00:04:56.946Z,77.22
2022-09-15T00:07:58.295Z,77.37
2022-09-15T00:11:08.126Z,77.22
2022-09-15T00:14:09.495Z,77.65
2022-09-15T00:17:10.956Z,77.82
2022-09-15T00:20:12.355Z,78.20
2022-09-15T00:23:15.439Z,78.77
2022-09-15T00:26:20.347Z,79.25
2022-09-15T00:29:21.703Z,80.08
2022-09-15T00:32:23.055Z,80.54
2022-09-15T00:35:24.548Z,80.78
2022-09-15T00:38:25.928Z,81.08
2022-09-15T00:41:27.295Z,81.29
2022-09-15T00:44:51.361Z,81.19
2022-09-15T00:47:52.720Z,81.76
2022-09-15T00:50:56.743Z,81.82
2022-09-15T00:54:00.516Z,81.92
2022-09-15T00:57:06.812Z,82.15
2022-09-15T01:00:15.196Z,82.14
2022-09-15T01:03:16.641Z,82.48
2022-09-15T01:06:26.888Z,82.31
2022-09-15T01:09:35.677Z,82.47
2022-09-15T01:12:37.253Z,82.66
2022-09-15T01:15:50.499Z,82.67
2022-09-15T01:19:32.034Z,82.38
2022-09-15T01:22:36.438Z,82.79
2022-09-15T01:26:06.126Z,82.39
2022-09-15T01:29:45.302Z,82.35
2022-09-15T01:33:04.755Z,82.69
2022-09-15T01:36:18.038Z,82.85
2022-09-15T01:39:30.245Z,82.55
2022-09-15T01:42:33.122Z,83.00
2022-09-15T01:45:38.832Z,83.00
2022-09-15T01:48:42.680Z,82.91
2022-09-15T01:51:46.448Z,82.97
2022-09-15T01:54:52.399Z,83.21
2022-09-15T01:57:53.726Z,83.48
2022-09-15T02:01:00.489Z,83.68
2022-09-15T02:04:11.871Z,83.67
2022-09-15T02:07:40.047Z,83.81
2022-09-15T02:10:55.048Z,83.88
2022-09-15T02:14:05.193Z,83.90
2022-09-15T02:17:15.243Z,83.81
2022-09-15T02:20:27.216Z,84.40
2022-09-15T02:23:35.017Z,83.88
2022-09-15T02:26:39.364Z,83.71
2022-09-15T02:29:44.579Z,83.75
2022-09-15T02:32:55.051Z,83.84
2022-09-15T02:35:56.412Z,83.89
2022-09-15T02:39:03.276Z,83.84
2022-09-15T02:42:04.964Z,83.96
2022-09-15T02:45:06.932Z,84.10
2022-09-15T02:48:08.653Z,84.36
2022-09-15T02:51:10.112Z,84.41
2022-09-15T02:54:11.452Z,84.55
2022-09-15T02:57:13.010Z,84.70
2022-09-15T03:00:15.869Z,84.72
2022-09-15T03:03:17.241Z,84.93
2022-09-15T03:06:18.558Z,84.79
2022-09-15T03:09:20.014Z,84.80
2022-09-15T03:12:21.341Z,84.79
2022-09-15T03:15:24.982Z,85.19
2022-09-15T03:18:26.293Z,85.41
2022-09-15T03:21:29.271Z,85.99
2022-09-15T03:24:30.626Z,86.25
2022-09-15T03:27:32.770Z,86.56
2022-09-15T03:30:34.114Z,86.83
2022-09-15T03:33:35.826Z,87.01
2022-09-15T03:36:37.206Z,87.09
2022-09-15T03:39:38.546Z,87.36
2022-09-15T03:42:40.040Z,87.50
2022-09-15T03:45:41.486Z,87.51
2022-09-15T03:48:42.863Z,87.59
2022-09-15T03:51:44.252Z,87.59
2022-09-15T03:54:45.574Z,87.57
2022-09-15T03:57:46.907Z,87.77
2022-09-15T04:00:48.263Z,87.79
2022-09-15T04:03:51.470Z,87.84
2022-09-15T04:06:53.046Z,87.82
2022-09-15T04:09:54.406Z,87.94
2022-09-15T04:12:55.908Z,87.93
2022-09-15T04:15:59.298Z,87.61
2022-09-15T04:19:00.707Z,87.32
2022-09-15T04:22:02.258Z,87.00
2022-09-15T04:25:04.035Z,86.73
2022-09-15T04:28:05.392Z,86.85
2022-09-15T04:31:12.598Z,86.69
2022-09-15T04:34:14.054Z,86.93
2022-09-15T04:37:15.373Z,86.76
2022-09-15T04:40:16.922Z,86.84
2022-09-15T04:43:18.457Z,86.52
2022-09-15T04:46:19.929Z,86.35
2022-09-15T04:49:21.316Z,86.20
2022-09-15T04:52:22.669Z,85.88
2022-09-15T04:55:24.078Z,85.56
2022-09-15T04:58:25.557Z,85.64
2022-09-15T05:01:29.346Z,85.41
2022-09-15T05:04:30.797Z,85.09
2022-09-15T05:07:32.149Z,85.22
2022-09-15T05:10:34.271Z,85.15
2022-09-15T05:13:36.635Z,85.15
2022-09-15T05:16:38.435Z,85.22
2022-09-15T05:19:39.878Z,85.09
2022-09-15T05:22:42.096Z,84.88
2022-09-15T05:25:43.539Z,84.82
2022-09-15T05:28:45.194Z,84.51
2022-09-15T05:31:46.656Z,84.40
2022-09-15T05:34:48.035Z,84.03
2022-09-15T05:37:49.511Z,83.93
2022-09-15T05:40:50.907Z,83.82
2022-09-15T05:43:54.067Z,83.31
2022-09-15T05:46:55.417Z,82.95
2022-09-15T05:49:56.823Z,82.98
2022-09-15T05:52:58.259Z,82.95
2022-09-15T05:56:01.888Z,83.06
2022-09-15T05:59:03.273Z,82.85
2022-09-15T06:02:05.324Z,82.56
2022-09-15T06:05:07.352Z,81.96
2022-09-15T06:08:08.804Z,81.12
2022-09-15T06:11:12.859Z,80.23
2022-09-15T06:14:14.348Z,80.61
2022-09-15T06:17:17.162Z,81.12
2022-09-15T06:20:18.699Z,81.39
2022-09-15T06:23:20.028Z,81.19
2022-09-15T06:26:21.429Z,80.82
2022-09-15T06:29:22.789Z,80.53
2022-09-15T06:32:24.376Z,80.91
2022-09-15T06:35:25.697Z,81.69
2022-09-15T06:38:27.032Z,82.13
2022-09-15T06:41:32.969Z,82.13
2022-09-15T06:44:49.549Z,82.07
2022-09-15T06:48:13.447Z,82.19
2022-09-15T06:51:14.310Z,82.59
2022-09-15T06:54:15.693Z,82.14
2022-09-15T06:57:17.029Z,80.97
2022-09-15T07:00:18.484Z,80.29
2022-09-15T07:03:19.927Z,78.97
2022-09-15T07:06:22.313Z,77.33
2022-09-15T07:09:23.653Z,76.89
2022-09-15T07:12:24.978Z,79.41
2022-09-15T07:15:26.307Z,81.23
2022-09-15T07:18:27.930Z,81.65
2022-09-15T07:21:29.284Z,82.00
2022-09-15T07:24:30.608Z,82.50
2022-09-15T07:27:32.035Z,82.97
2022-09-15T07:30:33.346Z,83.18
2022-09-15T07:33:36.027Z,82.74
2022-09-15T07:36:37.487Z,82.48
2022-09-15T07:39:38.805Z,81.47
2022-09-15T07:42:43.920Z,80.10
2022-09-15T07:45:45.879Z,76.18
2022-09-15T07:48:49.983Z,71.25
2022-09-15T07:51:51.319Z,63.72
2022-09-15T07:54:52.664Z,60.69
2022-09-15T07:58:00.912Z,62.66
2022-09-15T08:01:07.917Z,61.16
2022-09-15T08:04:09.320Z,66.62
2022-09-15T08:07:11.576Z,68.48
2022-09-15T08:10:12.953Z,69.46
2022-09-15T08:13:14.308Z,70.45
2022-09-15T08:16:21.460Z,70.00
2022-09-15T08:19:22.818Z,69.90
2022-09-15T08:22:24.224Z,68.99
2022-09-15T08:25:25.670Z,69.48
2022-09-15T08:28:27.449Z,62.52
2022-09-15T08:31:28.840Z,58.11
2022-09-15T08:34:30.380Z,59.60
2022-09-15T08:37:31.744Z,63.36
2022-09-15T08:40:37.303Z,62.38
2022-09-15T08:43:45.586Z,62.35
2022-09-15T08:47:05.418Z,61.92
2022-09-15T08:50:44.626Z,60.97
2022-09-15T08:53:53.457Z,63.33
2022-09-15T08:56:56.963Z,63.46
2022-09-15T08:59:59.173Z,62.67
2022-09-15T09:03:24.796Z,62.48
2022-09-15T09:06:52.037Z,61.65
2022-09-15T09:10:00.770Z,63.74
2022-09-15T09:13:23.706Z,65.26
2022-09-15T09:16:47.086Z,67.34
2022-09-15T09:20:12.341Z,66.63
2022-09-15T09:23:17.523Z,66.57
2022-09-15T09:26:19.611Z,65.17
2022-09-15T09:29:31.431Z,63.82
2022-09-15T09:32:46.462Z,66.55
2022-09-15T09:35:52.507Z,69.21
2022-09-15T09:38:55.771Z,70.95
2022-09-15T09:41:57.160Z,71.97
2022-09-15T09:44:58.520Z,71.46
2022-09-15T09:48:13.976Z,71.43
2022-09-15T09:51:35.401Z,69.71
2022-09-15T09:54:36.733Z,69.61
2022-09-15T09:57:40.721Z,68.06
2022-09-15T10:00:42.312Z,66.84
2022-09-15T10:03:43.928Z,67.11
2022-09-15T10:06:46.176Z,66.90
2022-09-15T10:09:51.004Z,67.10
2022-09-15T10:12:55.917Z,66.09
2022-09-15T10:16:00.845Z,65.60
2022-09-15T10:19:02.254Z,65.83
2022-09-15T10:22:04.578Z,65.47
2022-09-15T10:25:35.701Z,62.79
2022-09-15T10:29:10.221Z,60.33
2022-09-15T10:32:25.252Z,58.85
2022-09-15T10:35:32.549Z,58.30
2022-09-15T10:39:07.113Z,56.92
2022-09-15T10:42:35.634Z,57.68
2022-09-15T10:45:46.705Z,55.50
2022-09-15T10:49:06.746Z,56.11
2022-09-15T10:52:25.906Z,56.17
2022-09-15T10:55:52.776Z,57.47
2022-09-15T10:59:00.478Z,59.96
2022-09-15T11:02:23.270Z,61.21
2022-09-15T11:05:52.950Z,63.53
2022-09-15T11:09:12.622Z,64.02
2022-09-15T11:12:35.447Z,64.84
2022-09-15T11:15:48.615Z,63.72
2022-09-15T11:18:49.923Z,64.05
2022-09-15T11:21:59.039Z,61.80
2022-09-15T11:25:33.839Z,60.96
2022-09-15T11:28:47.554Z,59.88
2022-09-15T11:31:55.446Z,60.23
2022-09-15T11:35:26.538Z,57.68
2022-09-15T11:38:33.571Z,59.51
2022-09-15T11:41:40.055Z,59.84
2022-09-15T11:44:44.377Z,58.32
2022-09-15T11:47:55.337Z,58.43
2022-09-15T11:50:59.448Z,58.50
2022-09-15T11:54:18.126Z,58.88
2022-09-15T11:57:26.806Z,59.29
2022-09-15T12:00:28.152Z,59.60
2022-09-15T12:03:37.428Z,59.54
2022-09-15T12:07:07.920Z,59.57
2022-09-15T12:10:20.376Z,60.13
2022-09-15T12:13:24.071Z,60.64
2022-09-15T12:16:26.658Z,61.07
2022-09-15T12:20:01.452Z,60.42
2022-09-15T12:23:28.846Z,59.81
2022-09-15T12:26:33.022Z,59.17
2022-09-15T12:29:41.803Z,58.49
2022-09-15T12:32:43.893Z,58.36
2022-09-15T12:35:45.258Z,58.29
2022-09-15T12:38:49.672Z,57.08
2022-09-15T12:42:07.442Z,56.07
2022-09-15T12:45:28.378Z,54.58
2022-09-15T12:48:35.638Z,55.94
2022-09-15T12:51:37.055Z,56.64
2022-09-15T12:54:42.398Z,56.53
2022-09-15T12:57:51.344Z,57.58
2022-09-15T13:01:19.322Z,56.69
2022-09-15T13:04:42.806Z,62.03
2022-09-15T13:07:57.404Z,65.05
2022-09-15T13:11:09.165Z,66.37
2022-09-15T13:14:28.422Z,68.28
2022-09-15T13:17:30.764Z,70.22
2022-09-15T13:20:36.775Z,71.43
2022-09-15T13:23:40.972Z,71.81
2022-09-15T13:26:47.216Z,72.13
2022-09-15T13:29:54.888Z,72.36
2022-09-15T13:35:00.274Z,72.28
2022-09-15T13:40:56.319Z,70.46
2022-09-15T13:44:03.472Z,70.23
2022-09-15T13:47:31.697Z,68.46
2022-09-15T13:50:38.956Z,68.12
2022-09-15T13:53:46.234Z,68.63
2022-09-15T13:56:47.766Z,68.40
2022-09-15T13:59:50.620Z,68.05
2022-09-15T14:02:56.314Z,67.72
2022-09-15T14:05:57.682Z,67.39
2022-09-15T14:09:09.214Z,66.83
2022-09-15T14:12:13.178Z,66.50
2022-09-15T14:15:22.813Z,65.65
2022-09-15T14:18:24.205Z,65.20
2022-09-15T14:21:31.294Z,64.74
2022-09-15T14:24:32.674Z,64.29
2022-09-15T14:27:35.509Z,64.11
2022-09-15T14:30:37.785Z,63.73
2022-09-15T14:33:40.660Z,62.71
2022-09-15T14:36:42.121Z,61.51
2022-09-15T14:39:50.236Z,60.95
2022-09-15T14:42:51.730Z,61.88
2022-09-15T14:45:57.672Z,62.65
2022-09-15T14:49:11.570Z,62.80
2022-09-15T14:52:25.986Z,64.43
2022-09-15T14:55:31.513Z,66.28
2022-09-15T14:58:44.912Z,66.75
2022-09-15T15:01:58.851Z,68.17
2022-09-15T15:05:14.675Z,69.38
2022-09-15T15:08:32.343Z,70.83
2022-09-15T15:11:36.419Z,72.92
2022-09-15T15:14:37.928Z,74.29
2022-09-15T15:17:42.416Z,75.14
2022-09-15T15:20:49.888Z,75.48
2022-09-15T15:23:51.213Z,75.83
2022-09-15T15:26:52.539Z,75.86
2022-09-15T15:29:53.884Z,75.84
2022-09-15T15:33:01.633Z,75.90
2022-09-15T15:36:08.836Z,76.33
2022-09-15T15:39:23.120Z,75.74
2022-09-15T15:42:25.641Z,76.23
2022-09-15T15:45:29.062Z,76.58
2022-09-15T15:48:36.860Z,76.81
2022-09-15T15:51:41.104Z,76.66
2022-09-15T15:54:42.341Z,78.38
2022-09-15T15:57:44.833Z,76.41
2022-09-15T16:00:54.216Z,76.08
2022-09-15T16:03:55.585Z,76.36
2022-09-15T16:06:56.925Z,76.30
2022-09-15T16:09:59.990Z,76.47
2022-09-15T16:13:01.317Z,76.55
2022-09-15T16:16:13.768Z,76.62
2022-09-15T16:19:15.194Z,77.11
2022-09-15T16:22:20.798Z,77.04
2022-09-15T16:25:45.529Z,76.76
2022-09-15T16:28:46.898Z,76.65
2022-09-15T16:31:48.590Z,76.95
2022-09-15T16:34:49.986Z,77.13
2022-09-15T16:37:51.331Z,76.25
2022-09-15T16:40:52.688Z,75.55
2022-09-15T16:43:54.265Z,75.25
2022-09-15T16:46:55.666Z,75.30
2022-09-15T16:49:57.026Z,75.86
2022-09-15T16:52:58.721Z,76.01
2022-09-15T16:56:00.153Z,76.37
2022-09-15T16:59:01.607Z,76.62
2022-09-15T17:02:03.076Z,76.83
2022-09-15T17:05:18.447Z,77.07
2022-09-15T17:08:22.528Z,77.29
2022-09-15T17:11:25.607Z,77.69
2022-09-15T17:14:26.851Z,77.87
2022-09-15T17:17:28.308Z,77.66
2022-09-15T17:20:29.735Z,77.91
2022-09-15T17:23:35.021Z,77.96
2022-09-15T17:26:36.360Z,78.02
2022-09-15T17:29:37.692Z,78.48
2022-09-15T17:32:39.356Z,78.58
2022-09-15T17:35:41.121Z,78.64
2022-09-15T17:38:42.759Z,78.88
2022-09-15T17:41:44.118Z,78.78
2022-09-15T17:44:45.453Z,78.75
2022-09-15T17:47:47.137Z,78.70
2022-09-15T17:50:49.157Z,79.04
2022-09-15T17:53:50.535Z,79.13
2022-09-15T17:56:51.869Z,79.27
2022-09-15T17:59:53.189Z,79.46
2022-09-15T18:02:57.220Z,79.30
2022-09-15T18:06:00.168Z,79.76
2022-09-15T18:09:01.499Z,79.95
2022-09-15T18:12:02.926Z,79.56
2022-09-15T18:15:04.650Z,79.56
2022-09-15T18:18:05.998Z,79.46
2022-09-15T18:21:09.671Z,79.30
2022-09-15T18:24:14.086Z,79.18
2022-09-15T18:27:15.406Z,79.23
2022-09-15T18:30:18.295Z,79.10
2022-09-15T18:33:24.747Z,78.95
2022-09-15T18:36:26.077Z,79.15
2022-09-15T18:39:27.408Z,78.98
2022-09-15T18:42:31.787Z,78.80
2022-09-15T18:45:33.444Z,79.11
2022-09-15T18:48:34.866Z,79.42
2022-09-15T18:51:51.227Z,79.48
2022-09-15T18:54:53.179Z,79.82
2022-09-15T18:57:56.853Z,79.94
2022-09-15T19:01:00.310Z,79.94
2022-09-15T19:04:02.021Z,80.47
2022-09-15T19:07:03.670Z,81.09
2022-09-15T19:10:06.998Z,81.42
2022-09-15T19:13:08.263Z,83.12
2022-09-15T19:16:09.853Z,82.77
2022-09-15T19:19:11.236Z,82.65
2022-09-15T19:22:12.807Z,83.14
2022-09-15T19:25:14.153Z,83.62
2022-09-15T19:28:15.496Z,83.75
2022-09-15T19:31:16.841Z,83.76
2022-09-15T19:34:18.265Z,84.57
2022-09-15T19:37:21.433Z,85.94
2022-09-15T19:40:22.915Z,86.70
2022-09-15T19:43:24.314Z,86.47
2022-09-15T19:46:25.689Z,86.54
2022-09-15T19:49:27.157Z,86.11
2022-09-15T19:52:28.511Z,86.33
2022-09-15T19:55:29.865Z,86.53
2022-09-15T19:58:31.240Z,87.15
2022-09-15T20:01:33.154Z,87.38
2022-09-15T20:04:34.518Z,87.44
2022-09-15T20:07:35.950Z,87.39
2022-09-15T20:10:39.091Z,87.09
2022-09-15T20:13:43.349Z,87.64
2022-09-15T20:16:44.796Z,87.89
2022-09-15T20:19:46.207Z,87.79
2022-09-15T20:22:47.562Z,88.18
2022-09-15T20:25:59.799Z,88.07
2022-09-15T20:29:02.491Z,88.48
2022-09-15T20:32:03.971Z,88.93
2022-09-15T20:35:05.923Z,88.99
2022-09-15T20:38:07.231Z,88.90
2022-09-15T20:41:10.427Z,88.87
2022-09-15T20:44:12.051Z,89.08
2022-09-15T20:47:13.368Z,89.11
2022-09-15T20:50:14.728Z,88.85
2022-09-15T20:53:16.088Z,89.25
2022-09-15T20:56:18.594Z,89.66
2022-09-15T20:59:19.951Z,89.47
2022-09-15T21:02:21.342Z,89.53
2022-09-15T21:05:22.710Z,89.48
2022-09-15T21:08:24.054Z,89.94
2022-09-15T21:11:26.888Z,89.69
2022-09-15T21:14:28.232Z,89.96
2022-09-15T21:17:29.588Z,89.72
2022-09-15T21:20:30.940Z,89.54
2022-09-15T21:23:35.048Z,89.57
2022-09-15T21:26:39.054Z,90.25
2022-09-15T21:29:40.401Z,90.29
2022-09-15T21:32:41.725Z,90.43
2022-09-15T21:35:43.070Z,90.32
2022-09-15T21:38:44.616Z,90.64
2022-09-15T21:41:45.949Z,90.46
2022-09-15T21:44:47.345Z,90.70
2022-09-15T21:47:51.362Z,90.91
2022-09-15T21:50:53.996Z,91.04
2022-09-15T21:53:57.465Z,91.45
2022-09-15T21:56:58.811Z,91.32
2022-09-15T22:00:00.192Z,91.42
2022-09-15T22:03:01.766Z,91.53
2022-09-15T22:06:03.555Z,91.93
2022-09-15T22:09:08.505Z,91.84
2022-09-15T22:12:09.855Z,91.84
2022-09-15T22:15:11.183Z,91.95
2022-09-15T22:18:12.528Z,92.03
2022-09-15T22:21:17.966Z,91.69
2022-09-15T22:24:19.355Z,92.42
2022-09-15T22:27:20.719Z,92.06
2022-09-15T22:30:22.076Z,92.53
2022-09-15T22:33:23.431Z,92.30
2022-09-15T22:36:29.639Z,91.66
2022-09-15T22:39:50.552Z,91.98
2022-09-15T22:42:52.909Z,92.11
2022-09-15T22:45:54.336Z,92.35
2022-09-15T22:48:55.732Z,92.28
2022-09-15T22:51:57.120Z,92.32
2022-09-15T22:54:58.489Z,92.35
2022-09-15T22:57:59.853Z,92.40
2022-09-15T23:01:28.045Z,92.37
2022-09-15T23:04:32.348Z,92.63
2022-09-15T23:07:33.681Z,92.69
2022-09-15T23:10:35.018Z,92.61
2022-09-15T23:13:36.761Z,92.66
2022-09-15T23:16:38.155Z,92.80
2022-09-15T23:19:39.550Z,92.80
2022-09-15T23:22:40.881Z,93.70
2022-09-15T23:25:43.135Z,93.98
2022-09-15T23:28:44.527Z,93.35
2022-09-15T23:31:45.934Z,93.09
2022-09-15T23:34:47.330Z,93.37
2022-09-15T23:37:48.668Z,93.12
2022-09-15T23:40:50.127Z,93.45
2022-09-15T23:43:51.455Z,93.33
2022-09-15T23:46:52.834Z,93.86
2022-09-15T23:49:54.183Z,93.82
2022-09-15T23:52:55.535Z,93.76
2022-09-15T23:55:57.092Z,93.89
2022-09-15T23:58:58.449Z,93.92
